sensor_id;sensor_type;location;lat;lon;timestamp;P1;durP1;ratioP1;P2;durP2;ratioP2
12222;SDS011;6174;49.058;8.524;2023-07-08T06:02:25;7.68;;;6.10;;
12222;SDS011;6174;49.058;8.524;2023-07-08T06:08:43;6.55;;;5.90;;
12222;SDS011;6174;49.058;8.524;2023-07-08T06:11:45;7.22;;;6.35;;
12222;SDS011;6174;49.058;8.524;2023-07-08T06:14:23;7.10;;;6.40;;
12222;SDS011;6174;49.058;8.524;2023-07-08T06:17:04;8.00;;;6.00;;
12222;SDS011;6174;49.058;8.524;2023-07-08T06:22:58;9.35;;;6.68;;
12222;SDS011;6174;49.058;8.524;2023-07-08T06:25:33;7.32;;;6.18;;
12222;SDS011;6174;49.058;8.524;2023-07-08T06:34:14;7.03;;;5.88;;
12222;SDS011;6174;49.058;8.524;2023-07-08T06:43:44;7.03;;;6.22;;
12222;SDS011;6174;49.058;8.524;2023-07-08T06:46:11;6.80;;;5.57;;
12222;SDS011;6174;49.058;8.524;2023-07-08T06:48:38;7.00;;;6.32;;
12222;SDS011;6174;49.058;8.524;2023-07-08T06:51:05;9.00;;;5.30;;
12222;SDS011;6174;49.058;8.524;2023-07-08T07:09:34;5.95;;;5.35;;
12222;SDS011;6174;49.058;8.524;2023-07-08T07:28:22;6.80;;;4.95;;
12222;SDS011;6174;49.058;8.524;2023-07-08T07:30:54;6.45;;;5.05;;
12222;SDS011;6174;49.058;8.524;2023-07-08T07:34:02;5.38;;;4.88;;
12222;SDS011;6174;49.058;8.524;2023-07-08T07:36:28;5.10;;;4.07;;
12222;SDS011;6174;49.058;8.524;2023-07-08T07:38:59;7.97;;;4.45;;
12222;SDS011;6174;49.058;8.524;2023-07-08T07:41:33;7.20;;;4.78;;
12222;SDS011;6174;49.058;8.524;2023-07-08T07:44:06;5.82;;;4.55;;
12222;SDS011;6174;49.058;8.524;2023-07-08T07:46:35;8.13;;;4.88;;
12222;SDS011;6174;49.058;8.524;2023-07-08T07:49:16;5.97;;;4.63;;
12222;SDS011;6174;49.058;8.524;2023-07-08T07:51:42;6.97;;;5.13;;
12222;SDS011;6174;49.058;8.524;2023-07-08T07:54:09;7.22;;;5.35;;
12222;SDS011;6174;49.058;8.524;2023-07-08T07:56:38;6.55;;;4.97;;
12222;SDS011;6174;49.058;8.524;2023-07-08T08:05:33;5.05;;;4.38;;
12222;SDS011;6174;49.058;8.524;2023-07-08T08:08:05;5.78;;;4.18;;
12222;SDS011;6174;49.058;8.524;2023-07-08T08:10:37;6.05;;;4.53;;
12222;SDS011;6174;49.058;8.524;2023-07-08T08:13:04;9.07;;;4.78;;
12222;SDS011;6174;49.058;8.524;2023-07-08T08:15:41;5.28;;;4.53;;
12222;SDS011;6174;49.058;8.524;2023-07-08T08:18:08;5.70;;;4.30;;
12222;SDS011;6174;49.058;8.524;2023-07-08T08:20:38;5.32;;;4.35;;
12222;SDS011;6174;49.058;8.524;2023-07-08T08:26:49;4.22;;;3.55;;
12222;SDS011;6174;49.058;8.524;2023-07-08T09:36:24;2.65;;;1.95;;
12222;SDS011;6174;49.058;8.524;2023-07-08T09:49:46;3.72;;;1.90;;
12222;SDS011;6174;49.058;8.524;2023-07-08T09:52:18;3.80;;;2.10;;
12222;SDS011;6174;49.058;8.524;2023-07-08T09:54:45;3.78;;;1.88;;
12222;SDS011;6174;49.058;8.524;2023-07-08T09:57:18;2.13;;;1.85;;
12222;SDS011;6174;49.058;8.524;2023-07-08T10:00:15;2.80;;;1.83;;
12222;SDS011;6174;49.058;8.524;2023-07-08T10:02:45;3.00;;;2.03;;
12222;SDS011;6174;49.058;8.524;2023-07-08T10:05:18;3.08;;;2.20;;
12222;SDS011;6174;49.058;8.524;2023-07-08T10:07:54;2.05;;;1.85;;
12222;SDS011;6174;49.058;8.524;2023-07-08T10:10:24;2.33;;;1.70;;
12222;SDS011;6174;49.058;8.524;2023-07-08T10:12:56;2.85;;;1.88;;
12222;SDS011;6174;49.058;8.524;2023-07-08T10:15:27;5.88;;;2.00;;
12222;SDS011;6174;49.058;8.524;2023-07-08T10:17:57;1.90;;;1.75;;
12222;SDS011;6174;49.058;8.524;2023-07-08T10:20:24;3.20;;;1.98;;
12222;SDS011;6174;49.058;8.524;2023-07-08T10:23:08;1.90;;;1.80;;
12222;SDS011;6174;49.058;8.524;2023-07-08T10:25:47;2.10;;;1.90;;
12222;SDS011;6174;49.058;8.524;2023-07-08T10:28:25;1.88;;;1.77;;
12222;SDS011;6174;49.058;8.524;2023-07-08T10:31:12;2.28;;;2.08;;
12222;SDS011;6174;49.058;8.524;2023-07-08T10:33:53;2.53;;;1.70;;
12222;SDS011;6174;49.058;8.524;2023-07-08T10:36:36;2.42;;;1.88;;
12222;SDS011;6174;49.058;8.524;2023-07-08T10:39:25;2.80;;;2.05;;
12222;SDS011;6174;49.058;8.524;2023-07-08T10:42:11;2.08;;;1.92;;
12222;SDS011;6174;49.058;8.524;2023-07-08T10:44:49;2.78;;;2.00;;
12222;SDS011;6174;49.058;8.524;2023-07-08T10:47:30;1.80;;;1.70;;
12222;SDS011;6174;49.058;8.524;2023-07-08T10:52:59;2.55;;;2.35;;
12222;SDS011;6174;49.058;8.524;2023-07-08T10:55:40;2.63;;;2.30;;
12222;SDS011;6174;49.058;8.524;2023-07-08T10:58:24;2.38;;;2.03;;
12222;SDS011;6174;49.058;8.524;2023-07-08T11:01:06;2.05;;;1.95;;
12222;SDS011;6174;49.058;8.524;2023-07-08T11:06:47;3.13;;;2.50;;
12222;SDS011;6174;49.058;8.524;2023-07-08T11:09:17;3.20;;;2.42;;
12222;SDS011;6174;49.058;8.524;2023-07-08T11:11:53;2.67;;;2.47;;
12222;SDS011;6174;49.058;8.524;2023-07-08T11:14:25;3.40;;;2.28;;
12222;SDS011;6174;49.058;8.524;2023-07-08T11:16:57;2.90;;;2.40;;
12222;SDS011;6174;49.058;8.524;2023-07-08T11:19:34;2.83;;;2.45;;
12222;SDS011;6174;49.058;8.524;2023-07-08T11:22:06;2.88;;;2.33;;
12222;SDS011;6174;49.058;8.524;2023-07-08T11:24:38;3.45;;;2.33;;
12222;SDS011;6174;49.058;8.524;2023-07-08T11:27:11;2.35;;;2.10;;
12222;SDS011;6174;49.058;8.524;2023-07-08T11:29:48;4.13;;;2.42;;
12222;SDS011;6174;49.058;8.524;2023-07-08T11:32:19;3.20;;;2.25;;
12222;SDS011;6174;49.058;8.524;2023-07-08T11:34:48;2.95;;;2.30;;
12222;SDS011;6174;49.058;8.524;2023-07-08T11:37:17;4.18;;;2.50;;
12222;SDS011;6174;49.058;8.524;2023-07-08T11:39:47;4.07;;;2.50;;
12222;SDS011;6174;49.058;8.524;2023-07-08T11:42:22;3.65;;;2.60;;
12222;SDS011;6174;49.058;8.524;2023-07-08T11:45:01;3.40;;;2.30;;
12222;SDS011;6174;49.058;8.524;2023-07-08T11:47:38;2.85;;;2.40;;
12222;SDS011;6174;49.058;8.524;2023-07-08T11:50:12;2.75;;;2.53;;
12222;SDS011;6174;49.058;8.524;2023-07-08T11:52:51;2.70;;;2.50;;
12222;SDS011;6174;49.058;8.524;2023-07-08T11:55:24;4.53;;;2.70;;
12222;SDS011;6174;49.058;8.524;2023-07-08T11:57:55;2.67;;;2.47;;
12222;SDS011;6174;49.058;8.524;2023-07-08T12:00:25;4.25;;;2.97;;
12222;SDS011;6174;49.058;8.524;2023-07-08T12:02:59;4.25;;;2.60;;
12222;SDS011;6174;49.058;8.524;2023-07-08T12:05:42;3.13;;;2.75;;
12222;SDS011;6174;49.058;8.524;2023-07-08T12:08:11;3.80;;;2.90;;
12222;SDS011;6174;49.058;8.524;2023-07-08T12:10:39;4.80;;;3.20;;
12222;SDS011;6174;49.058;8.524;2023-07-08T12:13:13;3.97;;;3.10;;
12222;SDS011;6174;49.058;8.524;2023-07-08T12:15:42;4.70;;;2.88;;
12222;SDS011;6174;49.058;8.524;2023-07-08T12:18:12;3.47;;;2.85;;
12222;SDS011;6174;49.058;8.524;2023-07-08T12:20:42;4.70;;;3.30;;
12222;SDS011;6174;49.058;8.524;2023-07-08T12:23:13;3.42;;;2.70;;
12222;SDS011;6174;49.058;8.524;2023-07-08T12:25:41;4.70;;;2.83;;
12222;SDS011;6174;49.058;8.524;2023-07-08T12:28:09;4.95;;;2.97;;
12222;SDS011;6174;49.058;8.524;2023-07-08T12:30:38;3.20;;;2.75;;
12222;SDS011;6174;49.058;8.524;2023-07-08T12:33:09;4.10;;;3.20;;
12222;SDS011;6174;49.058;8.524;2023-07-08T12:35:38;3.10;;;2.80;;
12222;SDS011;6174;49.058;8.524;2023-07-08T12:38:10;3.85;;;2.85;;
12222;SDS011;6174;49.058;8.524;2023-07-08T12:40:44;3.00;;;2.70;;
12222;SDS011;6174;49.058;8.524;2023-07-08T12:43:11;3.40;;;2.80;;
12222;SDS011;6174;49.058;8.524;2023-07-08T12:45:40;4.25;;;2.95;;
12222;SDS011;6174;49.058;8.524;2023-07-08T12:48:07;3.53;;;2.70;;
12222;SDS011;6174;49.058;8.524;2023-07-08T12:50:35;4.13;;;2.72;;
12222;SDS011;6174;49.058;8.524;2023-07-08T12:53:03;4.32;;;2.58;;
12222;SDS011;6174;49.058;8.524;2023-07-08T12:55:34;3.17;;;2.88;;
12222;SDS011;6174;49.058;8.524;2023-07-08T12:58:02;3.58;;;2.75;;
12222;SDS011;6174;49.058;8.524;2023-07-08T13:00:30;3.00;;;2.47;;
12222;SDS011;6174;49.058;8.524;2023-07-08T13:03:03;4.20;;;2.80;;
12222;SDS011;6174;49.058;8.524;2023-07-08T13:05:33;2.90;;;2.60;;
12222;SDS011;6174;49.058;8.524;2023-07-08T13:08:00;5.15;;;3.03;;
12222;SDS011;6174;49.058;8.524;2023-07-08T13:10:28;3.30;;;2.75;;
12222;SDS011;6174;49.058;8.524;2023-07-08T13:12:56;3.50;;;2.90;;
12222;SDS011;6174;49.058;8.524;2023-07-08T13:15:28;3.78;;;3.08;;
12222;SDS011;6174;49.058;8.524;2023-07-08T13:17:59;4.95;;;3.25;;
12222;SDS011;6174;49.058;8.524;2023-07-08T13:20:29;3.08;;;2.75;;
12222;SDS011;6174;49.058;8.524;2023-07-08T13:22:58;3.58;;;2.90;;
12222;SDS011;6174;49.058;8.524;2023-07-08T13:25:27;3.75;;;2.97;;
12222;SDS011;6174;49.058;8.524;2023-07-08T13:27:56;3.20;;;2.60;;
12222;SDS011;6174;49.058;8.524;2023-07-08T13:30:25;13.13;;;4.35;;
12222;SDS011;6174;49.058;8.524;2023-07-08T13:32:53;3.38;;;3.05;;
12222;SDS011;6174;49.058;8.524;2023-07-08T13:35:23;3.25;;;2.95;;
12222;SDS011;6174;49.058;8.524;2023-07-08T13:37:52;3.25;;;2.40;;
12222;SDS011;6174;49.058;8.524;2023-07-08T13:40:19;3.30;;;3.00;;
12222;SDS011;6174;49.058;8.524;2023-07-08T13:42:46;3.45;;;2.78;;
12222;SDS011;6174;49.058;8.524;2023-07-08T13:45:15;3.42;;;2.65;;
12222;SDS011;6174;49.058;8.524;2023-07-08T13:47:45;4.07;;;3.25;;
12222;SDS011;6174;49.058;8.524;2023-07-08T13:50:27;4.90;;;2.85;;
12222;SDS011;6174;49.058;8.524;2023-07-08T13:52:57;3.55;;;2.88;;
12222;SDS011;6174;49.058;8.524;2023-07-08T13:55:24;2.80;;;2.50;;
12222;SDS011;6174;49.058;8.524;2023-07-08T13:57:55;3.53;;;2.63;;
12222;SDS011;6174;49.058;8.524;2023-07-08T14:00:24;4.18;;;2.88;;
12222;SDS011;6174;49.058;8.524;2023-07-08T14:02:51;5.45;;;2.90;;
12222;SDS011;6174;49.058;8.524;2023-07-08T14:05:18;4.72;;;2.78;;
12222;SDS011;6174;49.058;8.524;2023-07-08T14:07:47;3.05;;;2.60;;
12222;SDS011;6174;49.058;8.524;2023-07-08T14:10:14;3.28;;;2.83;;
12222;SDS011;6174;49.058;8.524;2023-07-08T14:12:41;6.13;;;2.63;;
12222;SDS011;6174;49.058;8.524;2023-07-08T14:15:08;3.53;;;2.72;;
12222;SDS011;6174;49.058;8.524;2023-07-08T14:17:35;2.95;;;2.65;;
12222;SDS011;6174;49.058;8.524;2023-07-08T14:20:07;3.65;;;2.80;;
12222;SDS011;6174;49.058;8.524;2023-07-08T14:22:36;3.28;;;2.85;;
12222;SDS011;6174;49.058;8.524;2023-07-08T14:25:06;3.75;;;2.90;;
12222;SDS011;6174;49.058;8.524;2023-07-08T14:27:34;2.65;;;2.45;;
12222;SDS011;6174;49.058;8.524;2023-07-08T14:30:01;4.28;;;2.80;;
12222;SDS011;6174;49.058;8.524;2023-07-08T14:32:29;3.85;;;2.80;;
12222;SDS011;6174;49.058;8.524;2023-07-08T14:34:57;3.85;;;2.70;;
12222;SDS011;6174;49.058;8.524;2023-07-08T14:37:42;3.17;;;2.83;;
12222;SDS011;6174;49.058;8.524;2023-07-08T14:42:58;4.28;;;2.65;;
12222;SDS011;6174;49.058;8.524;2023-07-08T14:45:29;3.40;;;2.97;;
12222;SDS011;6174;49.058;8.524;2023-07-08T14:47:57;3.50;;;2.92;;
12222;SDS011;6174;49.058;8.524;2023-07-08T14:50:24;5.15;;;2.80;;
12222;SDS011;6174;49.058;8.524;2023-07-08T14:52:54;3.97;;;2.80;;
12222;SDS011;6174;49.058;8.524;2023-07-08T14:55:21;3.20;;;2.90;;
12222;SDS011;6174;49.058;8.524;2023-07-08T14:57:49;3.13;;;2.83;;
12222;SDS011;6174;49.058;8.524;2023-07-08T15:00:16;3.53;;;2.72;;
12222;SDS011;6174;49.058;8.524;2023-07-08T15:02:45;2.78;;;2.58;;
12222;SDS011;6174;49.058;8.524;2023-07-08T15:05:14;3.33;;;2.35;;
12222;SDS011;6174;49.058;8.524;2023-07-08T15:07:43;2.92;;;2.63;;
12222;SDS011;6174;49.058;8.524;2023-07-08T15:10:11;4.00;;;2.90;;
12222;SDS011;6174;49.058;8.524;2023-07-08T15:12:38;2.83;;;2.47;;
12222;SDS011;6174;49.058;8.524;2023-07-08T15:15:08;3.15;;;2.58;;
12222;SDS011;6174;49.058;8.524;2023-07-08T15:17:41;4.78;;;2.80;;
12222;SDS011;6174;49.058;8.524;2023-07-08T15:20:09;3.60;;;2.70;;
12222;SDS011;6174;49.058;8.524;2023-07-08T15:22:39;3.28;;;2.65;;
12222;SDS011;6174;49.058;8.524;2023-07-08T15:25:10;3.20;;;2.65;;
12222;SDS011;6174;49.058;8.524;2023-07-08T15:27:38;4.07;;;3.03;;
12222;SDS011;6174;49.058;8.524;2023-07-08T15:30:13;3.00;;;2.65;;
12222;SDS011;6174;49.058;8.524;2023-07-08T15:32:43;3.30;;;3.00;;
12222;SDS011;6174;49.058;8.524;2023-07-08T15:35:14;3.45;;;3.00;;
12222;SDS011;6174;49.058;8.524;2023-07-08T15:37:42;2.70;;;2.50;;
12222;SDS011;6174;49.058;8.524;2023-07-08T15:40:11;4.05;;;3.03;;
12222;SDS011;6174;49.058;8.524;2023-07-08T15:42:40;4.45;;;2.85;;
12222;SDS011;6174;49.058;8.524;2023-07-08T15:45:13;3.78;;;3.00;;
12222;SDS011;6174;49.058;8.524;2023-07-08T15:47:42;2.60;;;2.40;;
12222;SDS011;6174;49.058;8.524;2023-07-08T15:50:10;3.38;;;2.60;;
12222;SDS011;6174;49.058;8.524;2023-07-08T15:52:37;4.30;;;3.03;;
12222;SDS011;6174;49.058;8.524;2023-07-08T15:55:04;2.80;;;2.60;;
12222;SDS011;6174;49.058;8.524;2023-07-08T15:57:32;5.22;;;3.03;;
12222;SDS011;6174;49.058;8.524;2023-07-08T16:00:00;2.80;;;2.60;;
12222;SDS011;6174;49.058;8.524;2023-07-08T16:02:28;3.08;;;2.70;;
12222;SDS011;6174;49.058;8.524;2023-07-08T16:04:56;4.13;;;2.72;;
12222;SDS011;6174;49.058;8.524;2023-07-08T17:23:54;3.35;;;3.05;;
12222;SDS011;6174;49.058;8.524;2023-07-08T19:53:50;5.70;;;3.97;;
12222;SDS011;6174;49.058;8.524;2023-07-08T19:56:18;6.05;;;3.95;;
12222;SDS011;6174;49.058;8.524;2023-07-08T19:58:46;4.68;;;3.65;;
12222;SDS011;6174;49.058;8.524;2023-07-08T20:01:14;5.32;;;3.63;;
12222;SDS011;6174;49.058;8.524;2023-07-08T20:03:41;6.82;;;3.63;;
12222;SDS011;6174;49.058;8.524;2023-07-08T20:06:11;9.00;;;4.32;;
12222;SDS011;6174;49.058;8.524;2023-07-08T20:08:39;6.38;;;4.38;;
12222;SDS011;6174;49.058;8.524;2023-07-08T20:11:08;8.40;;;4.53;;
12222;SDS011;6174;49.058;8.524;2023-07-08T20:13:35;5.68;;;3.70;;
12222;SDS011;6174;49.058;8.524;2023-07-08T20:16:08;6.10;;;3.88;;
12222;SDS011;6174;49.058;8.524;2023-07-08T20:18:38;6.88;;;4.30;;
12222;SDS011;6174;49.058;8.524;2023-07-08T20:21:05;7.25;;;4.35;;
12222;SDS011;6174;49.058;8.524;2023-07-08T20:23:32;5.00;;;3.90;;
12222;SDS011;6174;49.058;8.524;2023-07-08T20:26:02;4.68;;;4.18;;
12222;SDS011;6174;49.058;8.524;2023-07-08T20:28:31;6.38;;;4.30;;
12222;SDS011;6174;49.058;8.524;2023-07-08T20:30:58;5.07;;;4.40;;
12222;SDS011;6174;49.058;8.524;2023-07-08T20:33:26;7.15;;;4.75;;
12222;SDS011;6174;49.058;8.524;2023-07-08T20:35:53;6.57;;;4.40;;
12222;SDS011;6174;49.058;8.524;2023-07-08T20:38:20;5.03;;;4.53;;
12222;SDS011;6174;49.058;8.524;2023-07-08T20:40:47;6.90;;;5.20;;
12222;SDS011;6174;49.058;8.524;2023-07-08T20:43:16;5.78;;;5.00;;
12222;SDS011;6174;49.058;8.524;2023-07-08T20:45:46;8.52;;;6.13;;
12222;SDS011;6174;49.058;8.524;2023-07-08T20:48:16;9.93;;;5.82;;
12222;SDS011;6174;49.058;8.524;2023-07-08T20:50:49;7.38;;;5.45;;
12222;SDS011;6174;49.058;8.524;2023-07-08T20:53:17;8.05;;;5.00;;
12222;SDS011;6174;49.058;8.524;2023-07-08T20:55:45;6.25;;;5.43;;
12222;SDS011;6174;49.058;8.524;2023-07-08T20:58:13;6.00;;;4.93;;
12222;SDS011;6174;49.058;8.524;2023-07-08T21:00:41;5.78;;;4.65;;
12222;SDS011;6174;49.058;8.524;2023-07-08T21:03:12;5.25;;;4.60;;
12222;SDS011;6174;49.058;8.524;2023-07-08T21:05:41;7.82;;;5.35;;
12222;SDS011;6174;49.058;8.524;2023-07-08T21:08:14;6.15;;;5.35;;
12222;SDS011;6174;49.058;8.524;2023-07-08T21:10:47;7.95;;;5.32;;
12222;SDS011;6174;49.058;8.524;2023-07-08T21:13:14;6.93;;;5.38;;
12222;SDS011;6174;49.058;8.524;2023-07-08T21:15:41;6.50;;;5.20;;
12222;SDS011;6174;49.058;8.524;2023-07-08T21:18:09;8.38;;;6.25;;
12222;SDS011;6174;49.058;8.524;2023-07-08T21:20:40;9.55;;;5.50;;
12222;SDS011;6174;49.058;8.524;2023-07-08T21:23:07;19.40;;;17.23;;
12222;SDS011;6174;49.058;8.524;2023-07-08T21:25:35;12.90;;;11.63;;
12222;SDS011;6174;49.058;8.524;2023-07-08T21:28:02;9.18;;;7.88;;
12222;SDS011;6174;49.058;8.524;2023-07-08T21:30:30;5.80;;;5.20;;
12222;SDS011;6174;49.058;8.524;2023-07-08T21:32:57;7.28;;;4.55;;
12222;SDS011;6174;49.058;8.524;2023-07-08T21:35:27;5.40;;;4.57;;
12222;SDS011;6174;49.058;8.524;2023-07-08T21:37:56;6.85;;;4.30;;
12222;SDS011;6174;49.058;8.524;2023-07-08T21:40:30;6.70;;;4.72;;
12222;SDS011;6174;49.058;8.524;2023-07-08T21:43:00;5.47;;;4.20;;
12222;SDS011;6174;49.058;8.524;2023-07-08T21:45:32;6.20;;;4.13;;
12222;SDS011;6174;49.058;8.524;2023-07-08T21:48:00;5.65;;;4.50;;
12222;SDS011;6174;49.058;8.524;2023-07-08T21:50:29;8.07;;;4.43;;
12222;SDS011;6174;49.058;8.524;2023-07-08T21:53:02;5.75;;;4.20;;
12222;SDS011;6174;49.058;8.524;2023-07-08T21:55:29;6.63;;;4.63;;
12222;SDS011;6174;49.058;8.524;2023-07-08T21:57:56;6.85;;;4.80;;
12222;SDS011;6174;49.058;8.524;2023-07-08T22:00:23;5.18;;;4.63;;
12222;SDS011;6174;49.058;8.524;2023-07-08T22:02:51;5.07;;;4.60;;
12222;SDS011;6174;49.058;8.524;2023-07-08T22:05:19;6.18;;;4.40;;
12222;SDS011;6174;49.058;8.524;2023-07-08T22:07:48;5.80;;;4.18;;
12222;SDS011;6174;49.058;8.524;2023-07-08T22:10:15;5.95;;;4.53;;
12222;SDS011;6174;49.058;8.524;2023-07-08T22:12:43;5.28;;;4.40;;
12222;SDS011;6174;49.058;8.524;2023-07-08T22:15:18;5.93;;;4.20;;
12222;SDS011;6174;49.058;8.524;2023-07-08T22:17:48;4.97;;;4.30;;
12222;SDS011;6174;49.058;8.524;2023-07-08T22:20:15;6.93;;;4.43;;
12222;SDS011;6174;49.058;8.524;2023-07-08T22:22:44;7.18;;;4.88;;
12222;SDS011;6174;49.058;8.524;2023-07-08T22:25:16;6.60;;;4.35;;
12222;SDS011;6174;49.058;8.524;2023-07-08T22:27:45;5.20;;;4.60;;
12222;SDS011;6174;49.058;8.524;2023-07-08T22:30:12;4.88;;;4.20;;
